Time;durP1;ratioP1;P1;durP2;ratioP2;P2;SDS_P1;SDS_P2;PMS_P1;PMS_P2;Temp;Humidity;BMP_temperature;BMP_pressure;BME280_temperature;BME280_humidity;BME280_pressure;Samples;Min_cycle;Max_cycle;Signal;HPM_P1;HPM_P2
2022/08/31 00:04:01;;;;;;;1.15;0.63;;;14.10;1.00;;;;;;4951711;28;20294;-61
2022/08/31 00:06:30;;;;;;;0.60;0.60;;;12.50;1.00;;;;;;4936470;28;20625;-61
2022/08/31 00:08:56;;;;;;;0.80;0.77;;;13.70;1.00;;;;;;4951887;28;20823;-61
2022/08/31 00:11:29;;;;;;;0.90;0.80;;;13.70;1.00;;;;;;4952904;28;21247;-61
2022/08/31 00:13:57;;;;;;;0.90;0.52;;;14.00;99.90;;;;;;4958742;28;20302;-61
2022/08/31 00:16:26;;;;;;;0.95;0.65;;;13.70;99.90;;;;;;4953812;28;20200;-62
2022/08/31 00:18:53;;;;;;;0.98;0.70;;;13.80;99.90;;;;;;4953423;28;20568;-61
2022/08/31 00:21:21;;;;;;;0.75;0.70;;;13.60;1.00;;;;;;4961047;28;20195;-61
2022/08/31 00:23:49;;;;;;;5.10;1.00;;;13.90;1.00;;;;;;4922735;28;20246;-61
2022/08/31 00:26:16;;;;;;;0.50;0.50;;;14.00;99.90;;;;;;4963397;28;20207;-61
2022/08/31 00:28:44;;;;;;;2.72;0.70;;;13.70;99.90;;;;;;4949015;28;20608;-61
2022/08/31 00:31:11;;;;;;;1.27;0.70;;;13.70;99.90;;;;;;4954546;28;20207;-61
2022/08/31 00:33:40;;;;;;;1.08;0.63;;;13.50;99.90;;;;;;4951254;28;20203;-62
2022/08/31 00:36:10;;;;;;;0.95;0.80;;;13.50;1.00;;;;;;4969879;28;20192;-61
2022/08/31 00:38:38;;;;;;;1.27;0.77;;;13.60;1.00;;;;;;4940438;28;20210;-61
2022/08/31 00:41:05;;;;;;;0.68;0.60;;;13.40;1.00;;;;;;4970864;28;20204;-61
2022/08/31 00:43:40;;;;;;;0.57;0.57;;;13.40;47.70;;;;;;4954214;28;20217;-61
2022/08/31 00:46:09;;;;;;;0.95;0.70;;;13.40;61.30;;;;;;4960293;28;20207;-62
2022/08/31 00:48:40;;;;;;;1.00;0.63;;;13.40;50.20;;;;;;4957087;28;20227;-61
2022/08/31 00:51:07;;;;;;;2.95;1.00;;;13.30;91.90;;;;;;4970691;28;20705;-62
2022/08/31 00:53:34;;;;;;;1.73;1.02;;;11.80;1.00;;;;;;4946163;28;20199;-62
2022/08/31 00:56:01;;;;;;;1.35;0.77;;;13.00;1.00;;;;;;4971555;28;20845;-64
2022/08/31 00:58:28;;;;;;;2.63;1.10;;;13.00;1.00;;;;;;4957611;28;20211;-61
2022/08/31 01:00:55;;;;;;;0.88;0.60;;;12.80;1.00;;;;;;4960243;28;20211;-61
2022/08/31 01:03:22;;;;;;;3.42;0.90;;;13.00;1.00;;;;;;4973431;28;20203;-62
2022/08/31 01:05:51;;;;;;;0.63;0.63;;;13.00;1.00;;;;;;4951696;28;20200;-61
2022/08/31 01:08:18;;;;;;;0.80;0.70;;;12.80;1.00;;;;;;4968569;28;20234;-61
2022/08/31 01:10:45;;;;;;;0.82;0.77;;;12.90;1.00;;;;;;4939619;28;20868;-61
2022/08/31 01:13:13;;;;;;;1.13;0.90;;;;;;;;;;4952124;28;21356;-61
2022/08/31 01:15:44;;;;;;;1.83;0.90;;;12.90;1.00;;;;;;4951614;28;20223;-62
2022/08/31 01:18:11;;;;;;;0.73;0.73;;;12.90;99.90;;;;;;4964508;28;20214;-61
2022/08/31 01:20:52;;;;;;;0.90;0.80;;;13.00;1.00;;;;;;4954388;28;20218;-61
2022/08/31 01:23:22;;;;;;;1.38;0.88;;;13.00;1.00;;;;;;4969121;28;20196;-61
2022/08/31 01:25:50;;;;;;;2.22;0.90;;;13.00;99.90;;;;;;4936259;28;20219;-61
2022/08/31 01:28:18;;;;;;;4.60;0.80;;;12.60;1.00;;;;;;4967819;28;20235;-61
2022/08/31 01:30:57;;;;;;;1.58;0.80;;;12.80;1.00;;;;;;4941348;28;20226;-61
2022/08/31 01:33:24;;;;;;;0.90;0.88;;;12.50;1.00;;;;;;4962696;28;21658;-61
2022/08/31 01:35:51;;;;;;;0.77;0.70;;;12.60;1.00;;;;;;4952807;28;20215;-60
2022/08/31 01:38:19;;;;;;;3.50;0.95;;;12.50;99.90;;;;;;4964281;28;20214;-61
2022/08/31 01:40:51;;;;;;;2.55;1.10;;;12.40;1.00;;;;;;4950885;28;20204;-61
2022/08/31 01:43:18;;;;;;;1.27;0.93;;;12.40;1.00;;;;;;4957409;28;20207;-60
2022/08/31 01:45:45;;;;;;;1.25;0.80;;;12.30;99.90;;;;;;4950912;28;20207;-60
2022/08/31 01:48:12;;;;;;;0.73;0.73;;;12.30;1.00;;;;;;4956814;28;20235;-61
2022/08/31 01:50:39;;;;;;;3.05;0.90;;;12.50;1.00;;;;;;4963073;28;20227;-61
2022/08/31 01:53:06;;;;;;;0.70;0.70;;;12.20;1.00;;;;;;4946243;28;20290;-61
2022/08/31 01:55:35;;;;;;;1.98;0.85;;;12.20;1.00;;;;;;4963215;28;20204;-61
2022/08/31 01:58:02;;;;;;;0.80;0.80;;;12.00;99.90;;;;;;4932693;28;20219;-61
2022/08/31 02:00:29;;;;;;;1.33;0.90;;;11.70;99.90;;;;;;4962608;28;20200;-60
2022/08/31 02:02:59;;;;;;;1.02;0.90;;;12.20;1.00;;;;;;4939706;28;20591;-61
2022/08/31 02:05:27;;;;;;;0.88;0.88;;;12.10;1.00;;;;;;4965360;28;20195;-61
2022/08/31 02:07:53;;;;;;;0.95;0.88;;;12.10;18.90;;;;;;4948800;28;20211;-61
2022/08/31 02:10:21;;;;;;;3.08;0.82;;;12.00;99.90;;;;;;4965235;28;20196;-61
2022/08/31 02:12:49;;;;;;;2.03;1.10;;;12.00;99.90;;;;;;4936103;28;20246;-61
2022/08/31 02:15:16;;;;;;;0.80;0.80;;;13.90;1.00;;;;;;4963037;28;20199;-62
2022/08/31 02:17:43;;;;;;;0.95;0.82;;;12.00;1.00;;;;;;4941683;28;20207;-61
2022/08/31 02:20:11;;;;;;;1.13;0.98;;;12.10;1.00;;;;;;4960122;28;20203;-61
2022/08/31 02:22:38;;;;;;;0.85;0.80;;;12.20;1.00;;;;;;4950108;28;20207;-61
2022/08/31 02:25:06;;;;;;;1.77;0.80;;;12.30;1.00;;;;;;4966803;28;20206;-61
2022/08/31 02:27:34;;;;;;;0.80;0.77;;;12.40;1.00;;;;;;4937121;28;20693;-60
2022/08/31 02:30:02;;;;;;;0.80;0.73;;;12.30;99.90;;;;;;4966993;28;20234;-60
2022/08/31 02:32:29;;;;;;;1.20;0.90;;;12.20;99.90;;;;;;4935954;28;20199;-61
2022/08/31 02:34:55;;;;;;;1.05;0.85;;;12.30;99.90;;;;;;4962970;28;20219;-61
2022/08/31 02:37:22;;;;;;;0.98;0.90;;;12.30;99.90;;;;;;4947213;28;20215;-61
2022/08/31 02:39:49;;;;;;;4.00;0.93;;;12.30;99.90;;;;;;4962622;28;20203;-61
2022/08/31 02:42:16;;;;;;;1.75;1.00;;;12.30;1.00;;;;;;4943475;28;20195;-61
2022/08/31 02:44:43;;;;;;;1.17;1.08;;;12.10;1.00;;;;;;4958921;28;20207;-60
2022/08/31 02:47:11;;;;;;;1.05;1.00;;;12.10;1.00;;;;;;4945724;28;20199;-61
2022/08/31 02:49:38;;;;;;;1.50;0.88;;;12.20;1.00;;;;;;4946131;28;20238;-60
2022/08/31 02:52:04;;;;;;;1.10;0.88;;;12.10;1.00;;;;;;4961265;28;20204;-61
2022/08/31 02:54:31;;;;;;;1.25;1.00;;;12.00;1.00;;;;;;4946065;28;20673;-61
2022/08/31 02:56:58;;;;;;;1.55;1.10;;;12.00;32.60;;;;;;4961274;28;20220;-61
2022/08/31 02:59:25;;;;;;;4.05;1.08;;;11.90;97.40;;;;;;4934562;28;20207;-61
2022/08/31 03:01:52;;;;;;;1.80;1.20;;;11.90;99.90;;;;;;4954550;28;20215;-61
2022/08/31 03:04:21;;;;;;;0.80;0.80;;;12.00;99.90;;;;;;4947590;28;20206;-61
2022/08/31 03:06:47;;;;;;;4.65;2.90;;;12.00;99.90;;;;;;4964719;28;20204;-61
2022/08/31 03:09:15;;;;;;;1.13;1.05;;;12.20;99.90;;;;;;4949538;28;20231;-61
2022/08/31 03:11:42;;;;;;;1.33;1.02;;;12.10;99.90;;;;;;4961018;28;20227;-61
2022/08/31 03:14:09;;;;;;;0.82;0.82;;;11.80;99.90;;;;;;4936095;28;20587;-60
2022/08/31 03:16:38;;;;;;;1.42;1.20;;;12.10;99.90;;;;;;4945765;28;20242;-60
2022/08/31 03:19:05;;;;;;;1.08;1.00;;;12.00;99.90;;;;;;4957748;28;20300;-60
2022/08/31 03:21:33;;;;;;;0.85;0.82;;;12.10;99.90;;;;;;4952359;28;20207;-61
2022/08/31 03:24:00;;;;;;;1.05;0.98;;;12.00;99.90;;;;;;4960679;28;20211;-61
2022/08/31 03:26:27;;;;;;;2.33;1.20;;;11.90;99.90;;;;;;4947706;28;20206;-61
2022/08/31 03:28:54;;;;;;;0.88;0.85;;;11.80;99.90;;;;;;4931418;28;20293;-61
2022/08/31 03:31:21;;;;;;;4.75;1.27;;;11.70;99.90;;;;;;4948442;28;20203;-61
2022/08/31 03:33:48;;;;;;;1.95;1.10;;;11.70;99.90;;;;;;4957610;28;20204;-61
2022/08/31 03:36:16;;;;;;;1.30;1.20;;;11.70;99.90;;;;;;4944324;28;20578;-61
2022/08/31 03:38:44;;;;;;;1.80;1.10;;;;;;;;;;4960344;28;20212;-61
2022/08/31 03:41:14;;;;;;;3.90;1.20;;;11.90;99.90;;;;;;4946505;28;20215;-61
2022/08/31 03:43:40;;;;;;;1.10;1.00;;;11.90;99.90;;;;;;4953467;28;20211;-61
2022/08/31 03:46:07;;;;;;;3.25;1.08;;;11.90;99.90;;;;;;4934995;28;20230;-61
2022/08/31 03:48:34;;;;;;;1.08;1.00;;;11.80;99.90;;;;;;4946776;28;20219;-61
2022/08/31 03:51:01;;;;;;;1.38;1.00;;;11.70;99.90;;;;;;4942817;28;20635;-61
2022/08/31 03:53:28;;;;;;;1.40;1.20;;;11.70;99.90;;;;;;4951337;28;20771;-60
2022/08/31 03:56:00;;;;;;;1.15;1.02;;;11.50;99.90;;;;;;4953254;28;21680;-61
2022/08/31 03:58:27;;;;;;;1.17;1.08;;;11.70;99.90;;;;;;4937039;28;20266;-60
2022/08/31 04:00:55;;;;;;;1.00;1.00;;;11.60;99.90;;;;;;4933203;28;20204;-60
2022/08/31 04:03:22;;;;;;;0.90;0.90;;;11.40;99.90;;;;;;4948335;28;20329;-61
2022/08/31 04:05:50;;;;;;;1.00;0.90;;;11.50;99.90;;;;;;4960891;28;20207;-61
2022/08/31 04:08:18;;;;;;;2.20;1.27;;;11.50;99.90;;;;;;4959658;28;20208;-60
2022/08/31 04:10:47;;;;;;;2.38;1.20;;;11.50;1.00;;;;;;4959728;28;20227;-61
2022/08/31 04:13:15;;;;;;;1.10;1.00;;;11.70;1.00;;;;;;4945229;28;20242;-61
2022/08/31 04:15:42;;;;;;;2.83;1.50;;;11.60;1.00;;;;;;4940561;28;20246;-61
2022/08/31 04:18:09;;;;;;;1.63;1.40;;;11.70;1.00;;;;;;4954930;28;20211;-61
2022/08/31 04:20:37;;;;;;;1.45;1.20;;;11.60;1.00;;;;;;4966334;28;20384;-61
2022/08/31 04:23:04;;;;;;;2.10;1.33;;;11.80;1.00;;;;;;4950144;28;20234;-60
2022/08/31 04:25:32;;;;;;;1.10;1.00;;;11.70;1.00;;;;;;4955480;28;20207;-61
2022/08/31 04:28:00;;;;;;;3.35;1.20;;;11.80;1.00;;;;;;4951640;28;20203;-61
2022/08/31 04:30:29;;;;;;;6.93;1.40;;;12.00;1.00;;;;;;4924036;28;20230;-61
2022/08/31 04:32:55;;;;;;;1.38;1.17;;;13.30;1.00;;;;;;4964413;28;20247;-61
2022/08/31 04:35:22;;;;;;;1.25;1.10;;;12.80;1.00;;;;;;4945006;28;20298;-60
2022/08/31 04:37:49;;;;;;;1.20;1.10;;;11.80;1.00;;;;;;4948878;28;20219;-61
2022/08/31 04:40:19;;;;;;;1.73;1.40;;;11.90;1.00;;;;;;4946864;28;20231;-61
2022/08/31 04:42:46;;;;;;;3.10;1.30;;;11.90;1.00;;;;;;4963469;28;20820;-61
2022/08/31 04:45:14;;;;;;;4.53;1.30;;;11.80;1.00;;;;;;4910259;28;20215;-61
2022/08/31 04:47:43;;;;;;;2.75;1.50;;;11.70;1.00;;;;;;4952705;28;20204;-61
2022/08/31 04:50:11;;;;;;;5.68;1.42;;;11.50;1.00;;;;;;4946189;28;20238;-65
2022/08/31 04:52:38;;;;;;;5.28;1.30;;;11.40;1.00;;;;;;4945878;28;20247;-61
2022/08/31 04:55:06;;;;;;;1.23;1.13;;;11.70;1.00;;;;;;4943311;28;20230;-61
2022/08/31 04:57:34;;;;;;;5.45;1.45;;;11.70;1.00;;;;;;4950926;28;20231;-61
2022/08/31 05:00:01;;;;;;;2.25;1.48;;;11.50;1.00;;;;;;4935102;28;20595;-61
2022/08/31 05:02:28;;;;;;;9.23;1.50;;;11.30;1.00;;;;;;4933870;28;20220;-61
2022/08/31 05:04:56;;;;;;;1.58;1.13;;;;;;;;;;4955229;28;20223;-61
2022/08/31 05:07:24;;;;;;;2.13;1.33;;;11.70;1.00;;;;;;4947070;28;20234;-61
2022/08/31 05:09:51;;;;;;;2.28;1.48;;;11.70;1.00;;;;;;4962236;28;20326;-60
2022/08/31 05:12:18;;;;;;;1.25;1.15;;;11.60;1.00;;;;;;4947599;28;20778;-60
2022/08/31 05:14:44;;;;;;;1.52;1.08;;;11.80;1.00;;;;;;4963292;28;20228;-60
2022/08/31 05:17:11;;;;;;;2.15;1.52;;;11.50;1.00;;;;;;4920641;28;23202;-61
2022/08/31 05:19:38;;;;;;;4.05;1.25;;;11.60;1.00;;;;;;4960981;28;20204;-61
2022/08/31 05:22:06;;;;;;;1.50;1.40;;;11.80;1.00;;;;;;4953565;28;20210;-61
2022/08/31 05:24:36;;;;;;;1.83;1.38;;;11.70;1.00;;;;;;4949879;28;20211;-61
2022/08/31 05:27:03;;;;;;;2.90;1.60;;;11.70;1.00;;;;;;4962591;28;20231;-61
2022/08/31 05:29:29;;;;;;;1.70;1.33;;;12.50;1.00;;;;;;4947238;28;20231;-61
2022/08/31 05:31:56;;;;;;;2.17;1.48;;;11.80;1.00;;;;;;4924432;28;20218;-61
2022/08/31 05:34:23;;;;;;;2.50;1.65;;;12.90;1.00;;;;;;4953783;28;20203;-60
2022/08/31 05:36:54;;;;;;;2.35;1.70;;;11.60;1.00;;;;;;4950772;28;20212;-61
2022/08/31 05:39:23;;;;;;;2.85;1.65;;;11.80;1.00;;;;;;4960582;28;20901;-61
2022/08/31 05:41:50;;;;;;;1.90;1.45;;;11.90;1.00;;;;;;4966994;28;20215;-61
2022/08/31 05:44:19;;;;;;;4.10;1.80;;;11.90;1.00;;;;;;4959047;28;20199;-61
2022/08/31 05:46:46;;;;;;;2.22;1.70;;;12.20;1.00;;;;;;4944863;28;20208;-61
2022/08/31 05:49:13;;;;;;;1.48;1.38;;;;;;;;;;4939176;28;20871;-61
2022/08/31 05:51:40;;;;;;;1.60;1.50;;;12.20;1.00;;;;;;4961083;28;20221;-60
2022/08/31 05:54:09;;;;;;;1.92;1.70;;;12.20;1.00;;;;;;4951157;28;20204;-60
2022/08/31 05:56:41;;;;;;;2.60;1.83;;;12.30;1.00;;;;;;4952055;28;20216;-61
2022/08/31 05:59:07;;;;;;;1.63;1.52;;;12.30;1.00;;;;;;4960263;28;20231;-60
2022/08/31 06:01:37;;;;;;;2.40;1.67;;;12.50;1.00;;;;;;4944421;28;20234;-61
2022/08/31 06:04:06;;;;;;;1.60;1.50;;;12.40;1.00;;;;;;4936954;28;20501;-61
2022/08/31 06:06:33;;;;;;;2.78;1.80;;;12.60;1.00;;;;;;4942596;28;21111;-61
2022/08/31 06:09:00;;;;;;;2.33;1.60;;;;;;;;;;4951820;28;20821;-61
2022/08/31 06:11:29;;;;;;;3.00;1.50;;;12.80;1.00;;;;;;4946855;28;21311;-61
2022/08/31 06:14:00;;;;;;;1.88;1.60;;;13.00;1.00;;;;;;4956308;28;20211;-61
2022/08/31 06:16:28;;;;;;;1.50;1.40;;;13.10;1.00;;;;;;4952828;28;20224;-60
2022/08/31 06:18:57;;;;;;;2.33;1.98;;;13.20;1.00;;;;;;4925070;28;20215;-61
2022/08/31 06:21:27;;;;;;;2.03;1.85;;;13.50;1.00;;;;;;4967498;28;20281;-62
2022/08/31 06:23:56;;;;;;;1.95;1.50;;;13.30;1.00;;;;;;4947689;28;20997;-62
2022/08/31 06:26:24;;;;;;;1.67;1.58;;;13.20;1.00;;;;;;4961773;28;20211;-61
2022/08/31 06:28:54;;;;;;;1.70;1.60;;;13.30;1.00;;;;;;4943718;28;20739;-61
2022/08/31 06:31:26;;;;;;;2.00;1.80;;;13.30;1.00;;;;;;4956708;28;20247;-61
2022/08/31 06:33:54;;;;;;;2.22;1.50;;;13.40;1.00;;;;;;4923621;28;20231;-61
2022/08/31 06:36:24;;;;;;;2.53;1.80;;;13.40;1.00;;;;;;4966634;28;20203;-61
2022/08/31 06:38:52;;;;;;;1.50;1.40;;;13.50;1.00;;;;;;4961517;28;20200;-61
2022/08/31 06:41:21;;;;;;;1.63;1.52;;;13.60;1.00;;;;;;4964959;28;20235;-61
2022/08/31 06:43:48;;;;;;;1.88;1.52;;;13.80;1.00;;;;;;4938444;28;20208;-61
2022/08/31 06:46:17;;;;;;;1.60;1.50;;;13.80;1.00;;;;;;4961742;28;20204;-62
2022/08/31 06:48:46;;;;;;;1.85;1.42;;;13.80;1.00;;;;;;4946788;28;20208;-61
2022/08/31 06:51:14;;;;;;;1.50;1.40;;;14.10;1.00;;;;;;4939743;28;20223;-61
2022/08/31 06:53:42;;;;;;;3.00;1.50;;;13.90;1.00;;;;;;4966098;28;20215;-61
2022/08/31 06:56:11;;;;;;;2.42;1.50;;;14.20;1.00;;;;;;4963310;28;21125;-62
2022/08/31 06:58:38;;;;;;;1.65;1.38;;;14.30;1.00;;;;;;4961589;28;20207;-61
2022/08/31 07:01:06;;;;;;;1.77;1.30;;;14.40;1.00;;;;;;4948549;28;20612;-62
2022/08/31 07:03:36;;;;;;;2.33;1.20;;;14.40;1.00;;;;;;4967778;28;20203;-62
2022/08/31 07:06:09;;;;;;;1.50;1.17;;;14.40;1.00;;;;;;4928527;28;20208;-61
2022/08/31 07:08:36;;;;;;;4.32;1.60;;;14.50;1.00;;;;;;4969272;28;20670;-61
2022/08/31 07:11:03;;;;;;;2.00;1.20;;;14.60;1.00;;;;;;4963398;28;20246;-62
2022/08/31 07:13:31;;;;;;;1.30;1.20;;;14.70;1.00;;;;;;4971755;28;20203;-61
2022/08/31 07:16:05;;;;;;;1.30;1.20;;;14.70;1.00;;;;;;4967813;28;20196;-61
2022/08/31 07:18:33;;;;;;;8.88;1.50;;;14.80;1.00;;;;;;4972809;28;20632;-61
2022/08/31 07:21:13;;;;;;;1.75;1.10;;;15.10;99.90;;;;;;4937605;28;20222;-61
2022/08/31 07:23:40;;;;;;;5.53;1.15;;;14.90;99.90;;;;;;4964140;28;20677;-61
2022/08/31 07:26:09;;;;;;;5.05;1.45;;;15.00;99.90;;;;;;4967299;28;20219;-61
2022/08/31 07:28:37;;;;;;;1.15;0.93;;;15.10;99.90;;;;;;4957253;28;20209;-61
2022/08/31 07:31:05;;;;;;;1.83;0.88;;;15.20;99.90;;;;;;4971574;28;20631;-61
2022/08/31 07:33:36;;;;;;;3.08;0.90;;;15.20;1.00;;;;;;4963224;28;22857;-61
2022/08/31 07:36:05;;;;;;;1.33;1.00;;;15.20;1.00;;;;;;4954170;28;20230;-61
2022/08/31 07:44:03;;;;;;;2.50;1.25;;;15.70;1.00;;;;;;4961334;28;20238;-61
2022/08/31 07:46:30;;;;;;;1.17;1.08;;;15.60;99.90;;;;;;4955982;28;20231;-61
2022/08/31 07:48:57;;;;;;;2.80;0.90;;;;;;;;;;4972830;28;20579;-61
2022/08/31 07:51:25;;;;;;;0.90;0.90;;;;;;;;;;4938529;28;20242;-61
2022/08/31 07:53:54;;;;;;;1.98;1.30;;;15.50;99.90;;;;;;4973904;28;20219;-62
2022/08/31 07:56:24;;;;;;;2.78;1.00;;;15.80;99.90;;;;;;4959258;28;20749;-61
2022/08/31 07:58:51;;;;;;;6.43;1.20;;;15.60;1.00;;;;;;4975098;28;20266;-61
2022/08/31 08:01:19;;;;;;;1.52;1.00;;;16.10;1.00;;;;;;4942420;28;20227;-61
2022/08/31 08:03:45;;;;;;;1.00;0.90;;;16.00;99.90;;;;;;4965580;28;20223;-61
2022/08/31 08:06:14;;;;;;;0.90;0.80;;;;;;;;;;4945867;28;20215;-61
2022/08/31 08:08:42;;;;;;;1.92;0.93;;;16.10;1.00;;;;;;4943470;28;20227;-61
2022/08/31 08:11:15;;;;;;;0.95;0.90;;;16.10;1.00;;;;;;4952815;28;21070;-61
2022/08/31 08:13:43;;;;;;;1.20;1.10;;;16.20;99.90;;;;;;4960983;28;20208;-61
2022/08/31 08:16:10;;;;;;;9.20;0.82;;;16.30;1.00;;;;;;4944797;28;20208;-61
2022/08/31 08:18:36;;;;;;;0.80;0.80;;;16.30;1.00;;;;;;4960934;28;20216;-61
2022/08/31 08:21:04;;;;;;;1.45;0.90;;;16.30;1.00;;;;;;4955561;28;20254;-62
2022/08/31 08:23:31;;;;;;;4.72;0.77;;;16.40;99.90;;;;;;4941404;28;20225;-61
2022/08/31 08:26:00;;;;;;;2.38;0.93;;;16.50;1.00;;;;;;4969094;28;20215;-61
2022/08/31 08:28:30;;;;;;;2.38;0.95;;;16.60;1.00;;;;;;4956220;28;20200;-62
2022/08/31 08:31:00;;;;;;;1.25;0.88;;;16.60;1.00;;;;;;4958933;28;20227;-61
2022/08/31 08:33:27;;;;;;;3.65;0.80;;;16.80;92.50;;;;;;4946776;28;20227;-61
2022/08/31 08:35:55;;;;;;;0.57;0.57;;;16.70;1.00;;;;;;4967581;28;20210;-61
2022/08/31 08:38:23;;;;;;;5.57;0.80;;;16.80;23.60;;;;;;4927996;28;23434;-61
2022/08/31 08:40:50;;;;;;;5.57;1.00;;;16.80;1.00;;;;;;4966764;28;20204;-62
2022/08/31 08:43:19;;;;;;;0.50;0.45;;;16.90;1.00;;;;;;4967461;28;21380;-61
2022/08/31 08:45:51;;;;;;;1.00;0.90;;;14.00;1.00;;;;;;4959516;28;20208;-61
2022/08/31 08:48:23;;;;;;;1.00;0.80;;;17.10;1.00;;;;;;4938560;28;20251;-62
2022/08/31 08:50:51;;;;;;;1.55;1.00;;;17.10;1.00;;;;;;4966938;28;20244;-61
2022/08/31 08:53:22;;;;;;;0.57;0.57;;;17.10;1.00;;;;;;4938353;28;20227;-62
2022/08/31 08:55:50;;;;;;;3.85;1.20;;;17.30;99.90;;;;;;4965045;28;20208;-61
2022/08/31 08:58:18;;;;;;;3.05;1.00;;;17.30;99.90;;;;;;4966558;28;20200;-61
2022/08/31 09:00:51;;;;;;;1.13;0.75;;;17.40;99.90;;;;;;4959685;28;20353;-62
2022/08/31 09:03:29;;;;;;;4.05;0.80;;;17.70;99.90;;;;;;4937404;28;20251;-61
2022/08/31 09:06:05;;;;;;;0.57;0.57;;;17.40;21.10;;;;;;4960665;28;20223;-61
2022/08/31 09:09:07;;;;;;;1.35;1.02;;;18.60;1.00;;;;;;4926913;28;20254;-61
2022/08/31 09:11:45;;;;;;;1.60;0.68;;;17.40;1.00;;;;;;4958788;28;20799;-61
2022/08/31 09:14:25;;;;;;;1.50;0.80;;;17.80;1.00;;;;;;4959365;28;20223;-61
2022/08/31 09:17:00;;;;;;;2.15;0.80;;;17.90;1.00;;;;;;4957651;28;20247;-62
2022/08/31 09:19:27;;;;;;;0.73;0.68;;;;;;;;;;4955583;28;20864;-61
2022/08/31 09:21:56;;;;;;;0.50;0.50;;;18.10;99.90;;;;;;4967166;28;20230;-61
2022/08/31 09:24:26;;;;;;;1.10;0.65;;;18.10;99.90;;;;;;4937225;28;20207;-62
2022/08/31 09:27:03;;;;;;;0.93;0.60;;;18.30;99.90;;;;;;4970704;28;20331;-61
2022/08/31 09:29:32;;;;;;;1.77;1.08;;;18.30;99.90;;;;;;4966690;28;20207;-61
2022/08/31 09:32:04;;;;;;;4.85;0.90;;;18.30;16.30;;;;;;4956550;28;20224;-61
2022/08/31 09:34:36;;;;;;;5.72;0.88;;;18.30;1.00;;;;;;4959886;28;20298;-62
2022/08/31 09:37:15;;;;;;;0.63;0.63;;;18.30;1.00;;;;;;4970650;28;20196;-62
2022/08/31 09:39:46;;;;;;;2.58;0.80;;;18.40;1.00;;;;;;4933805;28;20207;-62
2022/08/31 09:42:19;;;;;;;2.17;0.73;;;18.30;1.00;;;;;;4966812;28;20215;-62
2022/08/31 09:44:49;;;;;;;0.73;0.65;;;18.40;1.00;;;;;;4963722;28;20281;-61
2022/08/31 09:47:46;;;;;;;8.93;1.08;;;18.70;1.00;;;;;;4960684;28;20223;-61
2022/08/31 09:50:25;;;;;;;0.60;0.60;;;18.80;1.00;;;;;;4960779;28;20669;-61
2022/08/31 09:56:06;;;;;;;1.33;0.75;;;19.00;1.00;;;;;;4940127;28;20234;-63
2022/08/31 09:58:33;;;;;;;0.60;0.60;;;18.80;1.00;;;;;;4964579;28;20285;-61
2022/08/31 10:01:12;;;;;;;1.92;0.73;;;18.90;1.00;;;;;;4948325;28;20227;-61
2022/08/31 10:03:44;;;;;;;0.70;0.70;;;18.70;1.00;;;;;;4954687;28;20257;-61
2022/08/31 10:06:26;;;;;;;0.60;0.60;;;18.80;1.00;;;;;;4958407;28;20984;-61
2022/08/31 10:08:58;;;;;;;0.68;0.68;;;18.90;1.00;;;;;;4945579;28;20223;-61
2022/08/31 10:11:30;;;;;;;0.75;0.60;;;18.90;1.00;;;;;;4943031;28;20746;-61
2022/08/31 10:14:03;;;;;;;2.15;0.70;;;19.40;1.00;;;;;;4970905;28;20196;-61
2022/08/31 10:16:35;;;;;;;3.75;0.93;;;18.90;1.00;;;;;;4958312;28;21099;-61
2022/08/31 10:19:08;;;;;;;1.65;0.80;;;18.80;1.00;;;;;;4959019;28;20223;-61
2022/08/31 10:21:44;;;;;;;1.70;0.75;;;18.80;1.00;;;;;;4952244;28;20211;-61
2022/08/31 10:24:20;;;;;;;2.22;0.80;;;18.90;1.00;;;;;;4961296;28;21195;-61
2022/08/31 10:27:03;;;;;;;1.80;0.70;;;18.80;1.00;;;;;;4931212;28;21028;-61
2022/08/31 10:29:38;;;;;;;2.28;0.93;;;18.80;1.00;;;;;;4963716;28;20234;-61
2022/08/31 10:32:16;;;;;;;0.80;0.68;;;18.80;99.90;;;;;;4968158;28;20226;-61
2022/08/31 10:35:04;;;;;;;1.00;0.80;;;18.80;99.90;;;;;;4951446;28;20231;-61
2022/08/31 10:37:37;;;;;;;4.25;0.73;;;19.10;1.00;;;;;;4960794;28;20203;-61
2022/08/31 10:40:08;;;;;;;1.00;0.75;;;19.00;99.90;;;;;;4953768;28;20235;-62
2022/08/31 10:42:39;;;;;;;4.32;0.85;;;19.10;99.90;;;;;;4939218;28;20718;-61
2022/08/31 10:45:12;;;;;;;8.73;1.05;;;20.10;99.90;;;;;;4964294;28;20228;-62
2022/08/31 10:47:45;;;;;;;4.72;0.88;;;19.20;99.90;;;;;;4972458;28;20229;-61
2022/08/31 10:50:18;;;;;;;5.15;1.13;;;19.30;99.90;;;;;;4948301;28;20227;-62
2022/08/31 10:52:57;;;;;;;7.43;0.68;;;19.40;99.90;;;;;;4970195;28;20234;-61
2022/08/31 10:55:32;;;;;;;1.38;1.17;;;19.40;99.90;;;;;;4956467;28;20206;-62
2022/08/31 10:58:08;;;;;;;0.60;0.60;;;19.40;99.90;;;;;;4932854;28;20596;-62
2022/08/31 11:00:47;;;;;;;2.15;1.00;;;19.50;99.90;;;;;;4961105;28;20214;-61
2022/08/31 11:03:26;;;;;;;6.32;0.85;;;19.40;99.90;;;;;;4972529;28;20246;-62
2022/08/31 11:06:00;;;;;;;0.60;0.60;;;19.40;99.90;;;;;;4952349;28;20700;-62
2022/08/31 11:08:47;;;;;;;0.57;0.57;;;19.50;99.90;;;;;;4972962;28;20215;-61
2022/08/31 11:11:20;;;;;;;0.70;0.70;;;19.70;99.90;;;;;;4967129;28;20985;-61
2022/08/31 11:14:13;;;;;;;1.23;0.80;;;19.80;99.90;;;;;;4923917;28;20226;-62
2022/08/31 11:16:58;;;;;;;0.57;0.57;;;19.80;99.90;;;;;;4971713;28;20290;-61
2022/08/31 11:19:53;;;;;;;0.60;0.60;;;19.70;99.90;;;;;;4971215;28;20200;-63
2022/08/31 11:22:48;;;;;;;0.80;0.80;;;19.50;99.90;;;;;;4960045;28;20202;-63
2022/08/31 11:25:32;;;;;;;0.60;0.60;;;19.90;99.90;;;;;;4971432;28;20203;-62
2022/08/31 11:28:05;;;;;;;3.72;0.70;;;19.80;99.90;;;;;;4955878;28;20203;-61
2022/08/31 11:30:36;;;;;;;0.63;0.60;;;20.70;99.90;;;;;;4949347;28;20239;-63
2022/08/31 11:33:10;;;;;;;5.05;0.82;;;20.00;99.90;;;;;;4967443;28;20230;-63
2022/08/31 11:36:01;;;;;;;1.08;0.63;;;20.00;99.90;;;;;;4954898;28;20259;-62
2022/08/31 11:38:48;;;;;;;2.00;0.75;;;19.90;99.90;;;;;;4954963;28;20290;-60
2022/08/31 11:41:43;;;;;;;0.68;0.60;;;19.90;99.90;;;;;;4950585;28;20643;-63
2022/08/31 11:44:32;;;;;;;1.33;0.40;;;19.90;98.10;;;;;;4962698;28;20812;-62
2022/08/31 11:47:05;;;;;;;0.80;0.80;;;20.40;99.90;;;;;;4939522;28;20215;-62
2022/08/31 11:49:44;;;;;;;2.80;0.80;;;20.10;82.70;;;;;;4959259;28;20705;-62
2022/08/31 11:52:33;;;;;;;1.60;0.70;;;20.10;92.10;;;;;;4949463;28;20728;-63
2022/08/31 11:55:09;;;;;;;4.32;0.80;;;20.20;39.20;;;;;;4968060;28;20294;-63
2022/08/31 11:58:14;;;;;;;1.75;0.88;;;20.10;48.20;;;;;;4959280;28;20214;-61
2022/08/31 12:00:48;;;;;;;3.75;0.75;;;20.20;23.40;;;;;;4946602;28;20235;-63
2022/08/31 12:04:02;;;;;;;8.63;1.00;;;20.10;54.60;;;;;;4940804;28;20278;-62
2022/08/31 12:07:09;;;;;;;1.25;0.70;;;20.50;36.30;;;;;;4955265;28;21094;-63
2022/08/31 12:10:15;;;;;;;6.18;1.30;;;20.30;1.00;;;;;;4964070;28;20238;-62
2022/08/31 12:13:18;;;;;;;7.20;0.90;;;20.40;1.00;;;;;;4965036;28;20249;-62
2022/08/31 12:16:26;;;;;;;4.30;1.08;;;20.40;1.00;;;;;;4937671;28;20222;-63
2022/08/31 12:25:27;;;;;;;1.42;0.70;;;20.40;1.00;;;;;;4955616;28;21403;-62
2022/08/31 12:28:07;;;;;;;0.60;0.60;;;20.50;1.00;;;;;;4949460;28;20249;-63
2022/08/31 12:30:34;;;;;;;5.75;0.70;;;20.70;99.90;;;;;;4945203;28;20210;-62
2022/08/31 12:33:07;;;;;;;2.80;0.90;;;20.60;36.30;;;;;;4930603;28;21171;-61
2022/08/31 12:35:34;;;;;;;3.08;1.05;;;20.60;1.00;;;;;;4958599;28;20224;-62
2022/08/31 12:38:03;;;;;;;2.58;0.90;;;20.60;99.90;;;;;;4946391;28;21450;-62
2022/08/31 12:40:34;;;;;;;1.48;0.93;;;20.60;1.00;;;;;;4939119;28;20814;-62
2022/08/31 12:43:13;;;;;;;4.05;1.00;;;20.60;1.00;;;;;;4964575;28;20283;-62
2022/08/31 12:46:05;;;;;;;1.35;1.00;;;20.70;1.00;;;;;;4933450;28;20206;-61
2022/08/31 12:48:56;;;;;;;2.38;0.98;;;20.70;1.00;;;;;;4931785;28;20223;-62
2022/08/31 12:51:35;;;;;;;1.17;0.93;;;20.70;1.00;;;;;;4968568;28;20223;-61
2022/08/31 12:54:20;;;;;;;1.77;1.27;;;20.60;1.00;;;;;;4947214;28;21313;-63
2022/08/31 12:56:57;;;;;;;1.40;0.90;;;20.60;1.00;;;;;;4939951;28;20318;-62
2022/08/31 12:59:36;;;;;;;3.78;0.80;;;20.60;1.00;;;;;;4958022;28;20207;-62
2022/08/31 13:02:03;;;;;;;0.77;0.70;;;20.80;1.00;;;;;;4968439;28;20746;-62
2022/08/31 13:04:30;;;;;;;0.65;0.65;;;20.70;1.00;;;;;;4944759;28;20212;-62
2022/08/31 13:07:12;;;;;;;3.22;1.02;;;20.90;1.00;;;;;;4969041;28;20247;-62
2022/08/31 13:09:41;;;;;;;1.73;0.80;;;20.90;1.00;;;;;;4954406;28;20245;-63
2022/08/31 13:12:09;;;;;;;0.63;0.63;;;20.90;1.00;;;;;;4957628;28;20234;-62
2022/08/31 13:14:42;;;;;;;2.08;1.00;;;20.80;1.00;;;;;;4958614;28;20773;-62
2022/08/31 13:17:14;;;;;;;1.90;0.80;;;20.80;1.00;;;;;;4955455;28;20237;-62
2022/08/31 13:19:49;;;;;;;1.73;0.82;;;20.80;1.00;;;;;;4943304;28;20224;-62
2022/08/31 13:22:26;;;;;;;2.05;0.70;;;20.80;1.00;;;;;;4970803;28;20223;-62
2022/08/31 13:24:53;;;;;;;1.27;0.80;;;20.80;1.00;;;;;;4951078;28;20328;-62
2022/08/31 13:27:24;;;;;;;0.95;0.82;;;20.70;1.00;;;;;;4957813;28;20231;-62
2022/08/31 13:29:55;;;;;;;2.63;0.80;;;21.00;1.00;;;;;;4954382;28;20223;-62
2022/08/31 13:32:31;;;;;;;1.30;0.80;;;21.00;1.00;;;;;;4948446;28;20309;-63
2022/08/31 13:35:02;;;;;;;0.80;0.75;;;21.00;1.00;;;;;;4942854;28;20215;-63